createdAt,value
2018-07-20T00:00:10.254Z,3.40
2018-07-20T00:01:13.258Z,3.53
2018-07-20T00:02:16.248Z,3.50
2018-07-20T00:03:20.369Z,3.50
2018-07-20T00:04:23.789Z,3.50
2018-07-20T00:05:29.675Z,3.83
2018-07-20T00:06:33.221Z,3.62
2018-07-20T00:07:36.052Z,4.10
2018-07-20T00:08:39.036Z,3.90
2018-07-20T00:09:42.385Z,3.60
2018-07-20T00:10:45.373Z,4.00
2018-07-20T00:11:48.358Z,4.00
2018-07-20T00:12:51.357Z,3.73
2018-07-20T00:13:54.374Z,3.67
2018-07-20T00:14:57.373Z,3.63
2018-07-20T00:16:00.370Z,3.70
2018-07-20T00:17:03.368Z,3.83
2018-07-20T00:18:06.469Z,4.20
2018-07-20T00:19:09.445Z,3.93
2018-07-20T00:20:12.455Z,3.53
2018-07-20T00:21:15.473Z,3.70
2018-07-20T00:22:18.486Z,3.33
2018-07-20T00:23:21.485Z,3.77
2018-07-20T00:24:24.604Z,3.45
2018-07-20T00:25:27.620Z,3.53
2018-07-20T00:26:30.600Z,4.03
2018-07-20T00:27:34.104Z,3.93
2018-07-20T00:28:37.333Z,3.53
2018-07-20T00:29:40.321Z,3.80
2018-07-20T00:30:43.304Z,3.57
2018-07-20T00:31:46.881Z,3.80
2018-07-20T00:32:49.876Z,3.33
2018-07-20T00:33:52.860Z,3.37
2018-07-20T00:34:55.869Z,3.80
2018-07-20T00:35:58.869Z,3.87
2018-07-20T00:37:02.357Z,3.63
2018-07-20T00:38:05.765Z,3.93
2018-07-20T00:39:10.897Z,3.40
2018-07-20T00:40:14.329Z,3.57
2018-07-20T00:41:18.027Z,3.93
2018-07-20T00:42:21.010Z,3.60
2018-07-20T00:43:24.010Z,3.87
2018-07-20T00:44:26.997Z,3.60
2018-07-20T00:45:29.924Z,3.77
2018-07-20T00:46:33.458Z,3.77
2018-07-20T00:47:36.462Z,3.60
2018-07-20T00:48:40.197Z,3.80
2018-07-20T00:49:44.006Z,3.77
2018-07-20T00:50:47.007Z,3.20
2018-07-20T00:51:50.011Z,3.47
2018-07-20T00:52:53.014Z,4.00
2018-07-20T00:53:56.765Z,3.97
2018-07-20T00:55:00.504Z,3.90
2018-07-20T00:56:03.504Z,3.90
2018-07-20T00:57:06.852Z,3.60
2018-07-20T00:58:10.593Z,3.30
2018-07-20T00:59:13.591Z,3.90
2018-07-20T01:00:16.901Z,4.17
2018-07-20T01:01:20.429Z,3.80
2018-07-20T01:02:23.414Z,4.07
2018-07-20T01:03:26.405Z,4.10
2018-07-20T01:04:29.445Z,3.40
2018-07-20T01:05:32.894Z,3.83
2018-07-20T01:06:37.553Z,3.93
2018-07-20T01:07:40.540Z,3.80
2018-07-20T01:08:43.534Z,3.67
2018-07-20T01:09:46.617Z,3.90
2018-07-20T01:10:49.697Z,3.70
2018-07-20T01:11:52.697Z,4.20
2018-07-20T01:12:55.512Z,3.77
2018-07-20T01:13:58.500Z,4.07
2018-07-20T01:15:02.326Z,3.90
2018-07-20T01:16:05.716Z,3.87
2018-07-20T01:17:08.805Z,4.03
2018-07-20T01:18:12.023Z,3.60
2018-07-20T01:19:15.029Z,3.90
2018-07-20T01:20:18.244Z,4.07
2018-07-20T01:21:21.256Z,3.83
2018-07-20T01:22:24.310Z,4.13
2018-07-20T01:23:27.129Z,3.70
2018-07-20T01:24:30.131Z,4.20
2018-07-20T01:25:33.128Z,3.97
2018-07-20T01:26:35.977Z,3.60
2018-07-20T01:27:38.993Z,3.70
2018-07-20T01:28:41.990Z,4.03
2018-07-20T01:29:44.978Z,3.97
2018-07-20T01:30:47.989Z,3.80
2018-07-20T01:31:51.031Z,3.50
2018-07-20T01:32:54.275Z,3.60
2018-07-20T01:33:57.637Z,3.90
2018-07-20T01:35:01.741Z,3.70
2018-07-20T01:36:04.735Z,3.37
2018-07-20T01:37:08.793Z,3.70
2018-07-20T01:38:12.597Z,4.12
2018-07-20T01:39:15.584Z,4.13
2018-07-20T01:40:19.032Z,4.20
2018-07-20T01:41:22.056Z,3.50
2018-07-20T01:42:25.140Z,3.77
2018-07-20T01:43:28.149Z,4.07
2018-07-20T01:44:31.486Z,3.97
2018-07-20T01:45:34.476Z,3.67
2018-07-20T01:46:38.172Z,4.33
2018-07-20T01:47:41.589Z,4.13
2018-07-20T01:48:44.584Z,3.63
2018-07-20T01:49:47.900Z,3.87
2018-07-20T01:50:50.897Z,4.07
2018-07-20T01:51:53.922Z,3.30
2018-07-20T01:52:57.169Z,3.67
2018-07-20T01:54:00.854Z,4.03
2018-07-20T01:55:04.524Z,4.13
2018-07-20T01:56:07.749Z,3.97
2018-07-20T01:57:10.869Z,4.17
2018-07-20T01:58:13.908Z,3.90
2018-07-20T01:59:16.740Z,3.83
2018-07-20T02:00:19.748Z,3.27
2018-07-20T02:01:22.757Z,4.10
2018-07-20T02:02:25.753Z,3.60
2018-07-20T02:03:28.840Z,3.73
2018-07-20T02:04:31.845Z,3.90
2018-07-20T02:05:34.825Z,3.60
2018-07-20T02:06:37.800Z,3.97
2018-07-20T02:07:41.229Z,3.60
2018-07-20T02:08:44.233Z,3.73
2018-07-20T02:09:47.265Z,4.03
2018-07-20T02:10:55.022Z,3.67
2018-07-20T02:11:58.109Z,3.50
2018-07-20T02:13:01.103Z,3.87
2018-07-20T02:14:04.029Z,3.90
2018-07-20T02:15:07.934Z,3.83
2018-07-20T02:16:10.937Z,3.87
2018-07-20T02:17:14.010Z,4.10
2018-07-20T02:18:17.000Z,3.80
2018-07-20T02:19:19.996Z,3.80
2018-07-20T02:20:22.981Z,4.17
2018-07-20T02:21:26.035Z,4.33
2018-07-20T02:22:28.997Z,4.13
2018-07-20T02:23:31.978Z,4.17
2018-07-20T02:24:35.138Z,3.93
2018-07-20T02:25:38.138Z,4.23
2018-07-20T02:26:41.129Z,4.10
2018-07-20T02:27:43.948Z,4.00
2018-07-20T02:28:46.969Z,3.90
2018-07-20T02:29:50.009Z,3.63
2018-07-20T02:30:53.517Z,4.47
2018-07-20T02:31:56.514Z,4.10
2018-07-20T02:32:59.513Z,3.90
2018-07-20T02:34:02.546Z,4.00
2018-07-20T02:35:06.314Z,4.07
2018-07-20T02:36:09.307Z,4.00
2018-07-20T02:37:12.293Z,3.73
2018-07-20T02:38:15.290Z,3.77
2018-07-20T02:39:18.276Z,4.10
2018-07-20T02:40:21.089Z,4.10
2018-07-20T02:41:24.089Z,4.23
2018-07-20T02:42:27.814Z,4.37
2018-07-20T02:43:30.809Z,3.90
2018-07-20T02:44:33.628Z,3.70
2018-07-20T02:45:36.634Z,4.07
2018-07-20T02:46:40.029Z,3.70
2018-07-20T02:47:43.513Z,3.77
2018-07-20T02:48:46.494Z,3.60
2018-07-20T02:49:49.479Z,3.80
2018-07-20T02:50:52.475Z,4.00
2018-07-20T02:51:56.339Z,4.03
2018-07-20T02:52:59.821Z,4.00
2018-07-20T02:54:03.180Z,3.90
2018-07-20T02:55:06.171Z,3.93
2018-07-20T02:56:09.180Z,4.10
2018-07-20T02:57:12.202Z,4.30
2018-07-20T02:58:15.621Z,4.30
2018-07-20T02:59:18.606Z,4.00
2018-07-20T03:00:21.673Z,4.00
2018-07-20T03:01:24.674Z,3.67
2018-07-20T03:02:27.658Z,4.17
2018-07-20T03:03:30.657Z,4.00
2018-07-20T03:04:35.260Z,4.63
2018-07-20T03:05:39.109Z,4.27
2018-07-20T03:06:42.834Z,4.03
2018-07-20T03:07:45.653Z,4.33
2018-07-20T03:08:49.181Z,4.13
2018-07-20T03:09:52.036Z,3.97
2018-07-20T03:10:55.413Z,4.20
2018-07-20T03:11:59.019Z,4.13
2018-07-20T03:13:02.791Z,3.70
2018-07-20T03:14:05.761Z,4.53
2018-07-20T03:15:09.710Z,3.93
2018-07-20T03:16:12.728Z,4.00
2018-07-20T03:17:15.745Z,4.50
2018-07-20T03:18:19.273Z,4.30
2018-07-20T03:19:22.990Z,4.05
2018-07-20T03:20:26.011Z,4.20
2018-07-20T03:21:29.002Z,4.10
2018-07-20T03:22:31.863Z,4.30
2018-07-20T03:23:35.681Z,4.17
2018-07-20T03:24:38.683Z,3.93
2018-07-20T03:25:41.680Z,4.33
2018-07-20T03:26:44.668Z,3.87
2018-07-20T03:27:47.988Z,3.80
2018-07-20T03:28:51.697Z,3.97
2018-07-20T03:29:54.733Z,4.00
2018-07-20T03:30:57.721Z,4.28
2018-07-20T03:32:01.931Z,4.07
2018-07-20T03:33:04.929Z,4.13
2018-07-20T03:34:07.744Z,3.97
2018-07-20T03:35:10.736Z,3.90
2018-07-20T03:36:13.720Z,4.03
2018-07-20T03:37:16.717Z,4.50
2018-07-20T03:38:19.717Z,4.27
2018-07-20T03:39:22.733Z,4.15
2018-07-20T03:40:26.269Z,3.93
2018-07-20T03:41:29.086Z,4.17
2018-07-20T03:42:32.104Z,3.87
2018-07-20T03:43:35.121Z,3.80
2018-07-20T03:44:39.028Z,4.20
2018-07-20T03:45:42.904Z,4.00
2018-07-20T03:46:45.744Z,4.37
2018-07-20T03:47:48.741Z,3.77
2018-07-20T03:48:51.765Z,4.63
2018-07-20T03:49:54.725Z,4.10
2018-07-20T03:50:57.714Z,4.13
2018-07-20T03:52:00.733Z,3.60
2018-07-20T03:53:03.747Z,4.43
2018-07-20T03:54:06.749Z,4.40
2018-07-20T03:55:09.750Z,3.90
2018-07-20T03:56:12.752Z,4.27
2018-07-20T03:57:16.648Z,3.80
2018-07-20T03:58:19.916Z,4.10
2018-07-20T03:59:22.916Z,4.33
2018-07-20T04:00:26.156Z,4.10
2018-07-20T04:01:29.601Z,4.00
2018-07-20T04:02:33.302Z,4.10
2018-07-20T04:03:37.102Z,4.40
2018-07-20T04:04:40.113Z,3.90
2018-07-20T04:05:43.129Z,4.90
2018-07-20T04:06:46.243Z,4.50
2018-07-20T04:07:49.294Z,3.90
2018-07-20T04:08:52.287Z,4.40
2018-07-20T04:09:55.280Z,4.00
2018-07-20T04:10:59.220Z,4.50
2018-07-20T04:12:02.917Z,4.13
2018-07-20T04:13:06.588Z,4.53
2018-07-20T04:14:09.573Z,3.77
2018-07-20T04:15:12.833Z,4.13
2018-07-20T04:16:15.835Z,3.90
2018-07-20T04:17:19.145Z,4.80
2018-07-20T04:18:22.147Z,4.23
2018-07-20T04:19:25.152Z,4.17
2018-07-20T04:20:28.347Z,4.07
2018-07-20T04:21:32.071Z,4.17
2018-07-20T04:22:35.798Z,4.23
2018-07-20T04:23:38.802Z,4.40
2018-07-20T04:24:41.793Z,4.30
2018-07-20T04:25:44.906Z,4.30
2018-07-20T04:26:48.592Z,3.90
2018-07-20T04:27:51.628Z,4.33
2018-07-20T04:28:54.864Z,4.33
2018-07-20T04:29:57.712Z,4.33
2018-07-20T04:31:00.696Z,5.00
2018-07-20T04:32:03.715Z,4.70
2018-07-20T04:33:07.560Z,5.70
2018-07-20T04:34:11.377Z,5.33
2018-07-20T04:35:14.363Z,5.83
2018-07-20T04:36:17.970Z,6.07
2018-07-20T04:37:20.920Z,6.23
2018-07-20T04:38:23.775Z,6.43
2018-07-20T04:39:26.790Z,5.70
2018-07-20T04:40:30.303Z,5.87
2018-07-20T04:41:33.306Z,6.40
2018-07-20T04:42:36.934Z,6.07
2018-07-20T04:43:39.941Z,6.30
2018-07-20T04:44:43.865Z,6.37
2018-07-20T04:45:47.537Z,6.50
2018-07-20T04:46:51.325Z,6.27
2018-07-20T04:47:54.314Z,6.63
2018-07-20T04:48:57.715Z,6.55
2018-07-20T04:50:00.784Z,6.83
2018-07-20T04:51:03.760Z,6.90
2018-07-20T04:52:06.753Z,6.27
2018-07-20T04:53:10.274Z,6.30
2018-07-20T04:54:13.391Z,6.78
2018-07-20T04:55:16.701Z,6.70
2018-07-20T04:56:19.795Z,6.90
2018-07-20T04:57:22.909Z,6.50
2018-07-20T04:58:26.550Z,6.78
2018-07-20T04:59:29.557Z,7.35
2018-07-20T05:00:32.565Z,7.30
2018-07-20T05:01:36.548Z,7.07
2018-07-20T05:02:39.568Z,6.87
2018-07-20T05:03:42.575Z,7.37
2018-07-20T05:04:45.663Z,6.70
2018-07-20T05:05:48.711Z,6.77
2018-07-20T05:06:51.641Z,6.85
2018-07-20T05:07:54.642Z,6.33
2018-07-20T05:08:57.656Z,6.60
2018-07-20T05:10:00.681Z,6.78
2018-07-20T05:11:03.721Z,6.60
2018-07-20T05:12:09.711Z,6.80
2018-07-20T05:13:13.738Z,6.85
2018-07-20T05:14:16.912Z,6.92
2018-07-20T05:15:19.910Z,6.83
2018-07-20T05:16:22.925Z,7.47
2018-07-20T05:17:25.921Z,6.55
2018-07-20T05:18:28.921Z,7.17
2018-07-20T05:19:32.026Z,6.80
2018-07-20T05:20:35.029Z,7.17
2018-07-20T05:21:38.045Z,6.93
2018-07-20T05:22:41.425Z,7.03
2018-07-20T05:23:45.535Z,7.27
2018-07-20T05:24:48.753Z,6.97
2018-07-20T05:25:51.904Z,6.97
2018-07-20T05:26:55.061Z,6.58
2018-07-20T05:27:58.829Z,6.58
2018-07-20T05:29:01.913Z,6.40
2018-07-20T05:30:05.967Z,8.30
2018-07-20T05:31:09.009Z,9.30
2018-07-20T05:32:13.381Z,9.75
2018-07-20T05:33:16.420Z,9.53
2018-07-20T05:34:19.498Z,9.03
2018-07-20T05:35:22.534Z,9.48
2018-07-20T05:36:25.364Z,9.83
2018-07-20T05:37:28.452Z,9.43
2018-07-20T05:38:31.464Z,10.43
2018-07-20T05:39:34.904Z,10.10
2018-07-20T05:40:38.072Z,9.18
2018-07-20T05:41:41.068Z,9.68
2018-07-20T05:42:44.053Z,9.98
2018-07-20T05:43:47.109Z,9.78
2018-07-20T05:44:50.412Z,10.00
2018-07-20T05:45:53.426Z,9.80
2018-07-20T05:46:56.445Z,9.63
2018-07-20T05:47:59.461Z,9.93
2018-07-20T05:49:02.601Z,10.05
2018-07-20T05:50:06.436Z,10.45
2018-07-20T05:51:09.649Z,9.90
2018-07-20T05:52:12.702Z,9.40
2018-07-20T05:53:15.712Z,10.23
2018-07-20T05:54:18.537Z,9.43
2018-07-20T05:55:22.362Z,9.95
2018-07-20T05:56:25.394Z,10.25
2018-07-20T05:57:28.385Z,9.25
2018-07-20T05:58:32.001Z,9.75
2018-07-20T05:59:34.993Z,9.65
2018-07-20T06:00:37.985Z,9.98
2018-07-20T06:01:40.989Z,9.50
2018-07-20T06:02:44.005Z,10.08
2018-07-20T06:03:47.001Z,10.25
2018-07-20T06:04:49.997Z,10.30
2018-07-20T06:05:53.033Z,10.23
2018-07-20T06:06:56.091Z,9.38
2018-07-20T06:07:59.144Z,9.15
2018-07-20T06:09:02.762Z,8.68
2018-07-20T06:10:05.978Z,9.20
2018-07-20T06:11:09.019Z,9.63
2018-07-20T06:12:12.001Z,9.98
2018-07-20T06:13:15.006Z,9.70
2018-07-20T06:14:18.112Z,9.20
2018-07-20T06:15:21.033Z,9.23
2018-07-20T06:16:24.075Z,9.65
2018-07-20T06:17:27.097Z,8.93
2018-07-20T06:18:30.453Z,9.23
2018-07-20T06:19:33.649Z,9.65
2018-07-20T06:20:36.630Z,8.98
2018-07-20T06:21:39.646Z,9.13
2018-07-20T06:22:43.824Z,8.78
2018-07-20T06:23:46.824Z,8.83
2018-07-20T06:24:51.329Z,8.85
2018-07-20T06:25:54.328Z,9.63
2018-07-20T06:26:57.949Z,8.95
2018-07-20T06:28:02.549Z,7.75
2018-07-20T06:29:05.573Z,7.28
2018-07-20T06:30:08.831Z,6.92
2018-07-20T06:31:13.153Z,6.95
2018-07-20T06:32:16.150Z,6.62
2018-07-20T06:33:19.006Z,6.55
2018-07-20T06:34:22.005Z,6.33
2018-07-20T06:35:25.005Z,5.65
2018-07-20T06:36:28.050Z,6.75
2018-07-20T06:37:37.441Z,5.78
2018-07-20T06:38:40.457Z,6.65
2018-07-20T06:39:43.594Z,6.30
2018-07-20T06:40:46.635Z,6.45
2018-07-20T06:41:49.689Z,6.12
2018-07-20T06:42:52.676Z,5.47
2018-07-20T06:43:55.737Z,6.05
2018-07-20T06:44:58.609Z,6.33
2018-07-20T06:46:01.649Z,6.22
2018-07-20T06:47:04.881Z,5.90
2018-07-20T06:48:07.889Z,6.05
2018-07-20T06:49:11.306Z,5.67
2018-07-20T06:50:15.266Z,6.17
2018-07-20T06:51:18.269Z,5.65
2018-07-20T06:52:21.381Z,5.95
2018-07-20T06:53:24.389Z,5.75
2018-07-20T06:54:27.941Z,6.03
2018-07-20T06:55:30.945Z,6.12
2018-07-20T06:56:33.956Z,5.72
2018-07-20T06:57:37.621Z,5.87
2018-07-20T06:58:41.523Z,5.95
2018-07-20T06:59:44.743Z,6.22
2018-07-20T07:00:47.729Z,6.35
2018-07-20T07:01:51.057Z,5.75
2018-07-20T07:02:54.105Z,5.72
2018-07-20T07:03:57.104Z,7.28
2018-07-20T07:05:00.431Z,7.67
2018-07-20T07:06:03.446Z,7.70
2018-07-20T07:07:07.062Z,7.67
2018-07-20T07:08:09.876Z,7.40
2018-07-20T07:09:12.933Z,7.78
2018-07-20T07:10:15.800Z,6.50
2018-07-20T07:11:18.644Z,7.67
2018-07-20T07:12:22.358Z,6.60
2018-07-20T07:13:25.358Z,7.05
2018-07-20T07:14:28.373Z,6.87
2018-07-20T07:15:31.390Z,7.00
2018-07-20T07:16:35.185Z,7.15
2018-07-20T07:17:38.221Z,6.95
2018-07-20T07:18:41.245Z,6.33
2018-07-20T07:19:44.238Z,6.70
2018-07-20T07:20:47.269Z,6.72
2018-07-20T07:21:50.364Z,6.78
2018-07-20T07:22:53.336Z,6.92
2018-07-20T07:23:56.316Z,6.17
2018-07-20T07:24:59.424Z,6.28
2018-07-20T07:26:03.033Z,5.78
2018-07-20T07:27:06.145Z,6.47
2018-07-20T07:28:09.149Z,5.58
2018-07-20T07:29:13.086Z,5.20
2018-07-20T07:30:16.136Z,5.08
2018-07-20T07:31:19.150Z,5.35
2018-07-20T07:32:22.201Z,6.20
2018-07-20T07:33:25.213Z,5.35
2018-07-20T07:34:28.965Z,5.70
2018-07-20T07:35:31.982Z,5.33
2018-07-20T07:36:34.985Z,5.50
2018-07-20T07:37:37.965Z,5.45
2018-07-20T07:38:40.960Z,5.70
2018-07-20T07:39:43.970Z,4.83
2018-07-20T07:40:47.004Z,5.47
2018-07-20T07:41:50.001Z,5.45
2018-07-20T07:42:53.004Z,5.08
2018-07-20T07:43:56.729Z,5.17
2018-07-20T07:44:59.784Z,5.03
2018-07-20T07:46:02.785Z,4.95
2018-07-20T07:47:05.857Z,5.25
2018-07-20T07:48:08.885Z,4.65
2018-07-20T07:49:11.869Z,4.67
2018-07-20T07:50:15.676Z,4.42
2018-07-20T07:51:18.664Z,4.03
2018-07-20T07:52:21.701Z,4.55
2018-07-20T07:53:24.757Z,3.98
2018-07-20T07:54:27.784Z,4.03
2018-07-20T07:55:30.797Z,4.05
2018-07-20T07:56:33.835Z,4.08
2018-07-20T07:57:36.828Z,4.10
2018-07-20T07:58:39.825Z,3.95
2018-07-20T07:59:42.825Z,3.95
2018-07-20T08:00:45.805Z,3.77
2018-07-20T08:01:49.934Z,3.70
2018-07-20T08:02:54.089Z,4.28
2018-07-20T08:03:57.679Z,3.67
2018-07-20T08:05:00.714Z,3.95
2018-07-20T08:06:03.757Z,3.87
2018-07-20T08:07:06.813Z,3.40
2018-07-20T08:08:09.678Z,4.12
2018-07-20T08:09:14.168Z,4.08
2018-07-20T08:10:17.209Z,3.83
2018-07-20T08:11:20.239Z,4.12
2018-07-20T08:12:23.265Z,3.98
2018-07-20T08:13:26.346Z,3.77
2018-07-20T08:14:29.351Z,3.42
2018-07-20T08:15:32.417Z,3.90
2018-07-20T08:16:35.427Z,4.05
2018-07-20T08:17:38.437Z,3.35
2018-07-20T08:18:41.541Z,3.87
2018-07-20T08:19:44.535Z,3.80
2018-07-20T08:20:47.531Z,3.92
2018-07-20T08:21:50.533Z,3.42
2018-07-20T08:22:53.593Z,3.70
2018-07-20T08:23:56.545Z,3.67
2018-07-20T08:24:59.561Z,3.70
2018-07-20T08:26:02.560Z,3.60
2018-07-20T08:27:05.579Z,3.27
2018-07-20T08:28:08.665Z,3.42
2018-07-20T08:29:11.725Z,3.47
2018-07-20T08:30:14.725Z,3.40
2018-07-20T08:31:17.779Z,3.62
2018-07-20T08:32:20.813Z,3.80
2018-07-20T08:33:23.994Z,3.80
2018-07-20T08:34:27.039Z,3.40
2018-07-20T08:35:30.034Z,3.20
2018-07-20T08:36:33.033Z,3.62
2018-07-20T08:37:36.037Z,3.45
2018-07-20T08:38:39.032Z,3.60
2018-07-20T08:39:42.055Z,3.47
2018-07-20T08:40:45.100Z,4.03
2018-07-20T08:41:48.165Z,3.70
2018-07-20T08:42:51.416Z,3.22
2018-07-20T08:43:54.438Z,3.45
2018-07-20T08:44:57.437Z,3.27
2018-07-20T08:46:00.451Z,3.47
2018-07-20T08:47:03.464Z,3.58
2018-07-20T08:48:06.450Z,3.25
2018-07-20T08:49:09.449Z,3.33
2018-07-20T08:50:12.453Z,3.40
2018-07-20T08:51:15.501Z,3.35
2018-07-20T08:52:18.561Z,3.22
2018-07-20T08:53:21.588Z,3.15
2018-07-20T08:54:24.585Z,3.35
2018-07-20T08:55:27.602Z,3.35
2018-07-20T08:56:30.629Z,2.95
2018-07-20T08:57:33.635Z,3.45
2018-07-20T08:58:36.767Z,3.40
2018-07-20T08:59:39.857Z,3.10
2018-07-20T09:00:42.880Z,3.65
2018-07-20T09:01:45.896Z,3.30
2018-07-20T09:02:48.886Z,3.70
2018-07-20T09:03:51.884Z,3.22
2018-07-20T09:04:54.905Z,3.33
2018-07-20T09:05:57.913Z,3.58
2018-07-20T09:07:00.922Z,3.40
2018-07-20T09:08:04.941Z,3.33
2018-07-20T09:09:08.789Z,3.27
2018-07-20T09:10:11.804Z,3.52
2018-07-20T09:11:14.797Z,3.42
2018-07-20T09:12:17.827Z,3.35
2018-07-20T09:13:20.856Z,3.45
2018-07-20T09:14:23.884Z,2.95
2018-07-20T09:15:26.924Z,2.87
2018-07-20T09:16:30.069Z,3.35
2018-07-20T09:17:33.053Z,3.35
2018-07-20T09:18:36.173Z,3.42
2018-07-20T09:19:39.197Z,3.60
2018-07-20T09:20:42.307Z,3.35
2018-07-20T09:21:45.236Z,3.30
2018-07-20T09:22:48.233Z,3.40
2018-07-20T09:23:51.233Z,3.30
2018-07-20T09:24:54.222Z,3.52
2018-07-20T09:25:57.245Z,3.47
2018-07-20T09:27:00.224Z,3.00
2018-07-20T09:28:03.359Z,3.50
2018-07-20T09:29:06.624Z,3.50
2018-07-20T09:30:09.639Z,3.60
2018-07-20T09:31:12.646Z,3.95
2018-07-20T09:32:15.633Z,3.10
2018-07-20T09:33:18.710Z,3.52
2018-07-20T09:34:21.708Z,3.37
2018-07-20T09:35:24.707Z,3.35
2018-07-20T09:36:27.732Z,3.10
2018-07-20T09:37:30.730Z,3.27
2018-07-20T09:38:33.734Z,3.72
2018-07-20T09:39:36.751Z,3.40
2018-07-20T09:40:39.827Z,3.20
2018-07-20T09:41:42.849Z,3.20
2018-07-20T09:42:45.843Z,3.67
2018-07-20T09:43:49.177Z,3.47
2018-07-20T09:44:52.184Z,3.30
2018-07-20T09:45:55.197Z,3.70
2018-07-20T09:46:58.221Z,3.10
2018-07-20T09:48:01.217Z,3.52
2018-07-20T09:49:04.278Z,3.72
2018-07-20T09:50:07.268Z,3.55
2018-07-20T09:51:10.256Z,3.20
2018-07-20T09:52:14.151Z,3.30
2018-07-20T09:53:17.147Z,3.57
2018-07-20T09:54:20.148Z,3.50
2018-07-20T09:55:23.192Z,3.55
2018-07-20T09:56:26.227Z,3.70
2018-07-20T09:57:29.221Z,3.60
2018-07-20T09:58:32.235Z,3.50
2018-07-20T09:59:35.261Z,3.20
2018-07-20T10:00:43.697Z,3.60
2018-07-20T10:01:46.797Z,3.50
2018-07-20T10:02:50.008Z,3.65
2018-07-20T10:03:53.062Z,3.95
2018-07-20T10:04:56.053Z,3.80
2018-07-20T10:05:59.065Z,3.22
2018-07-20T10:07:02.041Z,3.27
2018-07-20T10:08:05.093Z,3.80
2018-07-20T10:09:09.541Z,3.72
2018-07-20T10:10:12.578Z,3.70
2018-07-20T10:11:15.566Z,3.90
2018-07-20T10:12:18.569Z,3.80
2018-07-20T10:13:21.572Z,3.55
2018-07-20T10:14:24.599Z,3.65
2018-07-20T10:15:27.613Z,3.87
2018-07-20T10:16:30.618Z,4.03
2018-07-20T10:17:33.681Z,3.98
2018-07-20T10:18:36.666Z,3.70
2018-07-20T10:19:39.733Z,3.75
2018-07-20T10:20:42.746Z,4.10
2018-07-20T10:21:45.753Z,4.30
2018-07-20T10:22:48.761Z,3.83
2018-07-20T10:23:51.737Z,3.85
2018-07-20T10:24:54.723Z,3.90
2018-07-20T10:25:57.718Z,3.80
2018-07-20T10:27:00.769Z,3.77
2018-07-20T10:28:03.842Z,3.87
2018-07-20T10:29:06.865Z,3.75
2018-07-20T10:30:09.927Z,3.70
2018-07-20T10:31:12.926Z,3.40
2018-07-20T10:32:15.933Z,3.65
2018-07-20T10:33:18.989Z,3.67
2018-07-20T10:34:21.994Z,4.30
2018-07-20T10:35:25.017Z,3.50
2018-07-20T10:36:28.052Z,4.35
2018-07-20T10:37:31.151Z,3.37
2018-07-20T10:38:34.234Z,3.60
2018-07-20T10:39:37.245Z,3.50
2018-07-20T10:40:40.272Z,3.77
2018-07-20T10:41:43.289Z,3.50
2018-07-20T10:42:46.323Z,3.90
2018-07-20T10:43:49.341Z,3.17
2018-07-20T10:44:52.361Z,4.35
2018-07-20T10:45:55.400Z,3.70
2018-07-20T10:46:58.960Z,4.00
2018-07-20T10:48:01.928Z,3.72
2018-07-20T10:49:05.145Z,3.62
2018-07-20T10:50:08.556Z,3.65
2018-07-20T10:51:11.536Z,3.97
2018-07-20T10:52:14.546Z,3.93
2018-07-20T10:53:17.541Z,4.12
2018-07-20T10:54:20.522Z,3.70
2018-07-20T10:55:23.559Z,3.75
2018-07-20T10:56:26.559Z,3.95
2018-07-20T10:57:29.547Z,3.83
2018-07-20T10:58:32.566Z,3.60
2018-07-20T10:59:35.651Z,3.80
2018-07-20T11:00:38.657Z,4.00
2018-07-20T11:01:41.788Z,4.07
2018-07-20T11:02:44.884Z,3.47
2018-07-20T11:03:47.920Z,3.67
2018-07-20T11:04:50.985Z,3.83
2018-07-20T11:05:54.013Z,3.90
2018-07-20T11:06:57.033Z,3.93
2018-07-20T11:08:00.034Z,3.60
2018-07-20T11:09:03.458Z,4.00
2018-07-20T11:10:06.741Z,3.70
2018-07-20T11:11:10.241Z,3.75
2018-07-20T11:12:13.269Z,3.70
2018-07-20T11:13:16.288Z,3.87
2018-07-20T11:14:19.296Z,3.87
2018-07-20T11:15:22.289Z,3.58
2018-07-20T11:16:25.321Z,3.72
2018-07-20T11:17:28.381Z,3.62
2018-07-20T11:18:31.413Z,3.70
2018-07-20T11:19:34.430Z,3.20
2018-07-20T11:20:37.464Z,3.73
2018-07-20T11:21:40.473Z,3.67
2018-07-20T11:22:43.512Z,3.70
2018-07-20T11:23:46.551Z,3.58
2018-07-20T11:24:49.574Z,3.87
2018-07-20T11:25:52.589Z,3.70
2018-07-20T11:26:55.605Z,4.33
2018-07-20T11:27:58.782Z,3.65
2018-07-20T11:29:01.741Z,4.27
2018-07-20T11:30:05.685Z,3.90
2018-07-20T11:31:08.681Z,3.75
2018-07-20T11:32:11.697Z,3.53
2018-07-20T11:33:14.702Z,3.47
2018-07-20T11:34:17.713Z,3.72
2018-07-20T11:35:21.522Z,3.90
2018-07-20T11:36:24.586Z,4.03
2018-07-20T11:37:27.607Z,4.23
2018-07-20T11:38:30.633Z,3.92
2018-07-20T11:39:33.636Z,3.80
2018-07-20T11:40:36.740Z,3.80
2018-07-20T11:41:39.864Z,3.60
2018-07-20T11:42:42.862Z,4.00
2018-07-20T11:43:45.938Z,3.57
2018-07-20T11:44:48.962Z,3.77
2018-07-20T11:45:51.978Z,4.00
2018-07-20T11:46:54.985Z,3.83
2018-07-20T11:47:58.009Z,3.47
2018-07-20T11:49:01.048Z,3.73
2018-07-20T11:50:04.316Z,3.47
2018-07-20T11:51:07.412Z,3.50
2018-07-20T11:52:10.517Z,3.58
2018-07-20T11:53:13.537Z,4.00
2018-07-20T11:54:16.565Z,3.60
2018-07-20T11:55:19.699Z,4.03
2018-07-20T11:56:22.773Z,3.80
2018-07-20T11:57:25.830Z,3.60
2018-07-20T11:58:28.905Z,4.07
2018-07-20T11:59:32.035Z,3.90
2018-07-20T12:00:35.033Z,3.80
2018-07-20T12:01:38.075Z,3.70
2018-07-20T12:02:41.109Z,4.30
2018-07-20T12:03:44.113Z,3.77
2018-07-20T12:04:47.177Z,3.47
2018-07-20T12:05:50.277Z,3.83
2018-07-20T12:06:53.324Z,3.47
2018-07-20T12:07:56.332Z,3.50
2018-07-20T12:08:59.369Z,3.50
2018-07-20T12:10:02.396Z,3.77
2018-07-20T12:11:05.427Z,3.60
2018-07-20T12:12:08.658Z,3.43
2018-07-20T12:13:11.731Z,3.30
2018-07-20T12:14:14.772Z,3.70
2018-07-20T12:15:17.794Z,3.40
2018-07-20T12:16:20.824Z,3.70
2018-07-20T12:17:23.849Z,3.63
2018-07-20T12:18:26.877Z,3.50
2018-07-20T12:19:29.891Z,3.60
2018-07-20T12:20:32.882Z,3.60
2018-07-20T12:21:35.889Z,4.00
2018-07-20T12:22:38.925Z,3.50
2018-07-20T12:23:41.961Z,3.90
2018-07-20T12:24:44.937Z,3.47
2018-07-20T12:25:48.032Z,4.10
2018-07-20T12:26:51.160Z,3.40
2018-07-20T12:27:54.297Z,3.40
2018-07-20T12:28:57.319Z,3.90
2018-07-20T12:30:00.301Z,3.67
2018-07-20T12:31:03.282Z,3.57
2018-07-20T12:32:06.312Z,3.90
2018-07-20T12:33:09.338Z,4.03
2018-07-20T12:34:12.465Z,3.63
2018-07-20T12:35:15.446Z,3.50
2018-07-20T12:36:18.523Z,3.60
2018-07-20T12:37:21.521Z,3.55
2018-07-20T12:38:24.544Z,3.73
2018-07-20T12:39:27.540Z,3.80
2018-07-20T12:40:30.589Z,3.83
2018-07-20T12:41:33.601Z,3.87
2018-07-20T12:42:36.686Z,3.67
2018-07-20T12:43:39.649Z,4.03
2018-07-20T12:44:42.622Z,3.87
2018-07-20T12:45:45.610Z,3.83
2018-07-20T12:46:48.632Z,3.63
2018-07-20T12:47:51.641Z,3.72
2018-07-20T12:48:54.629Z,3.57
2018-07-20T12:49:57.629Z,3.60
2018-07-20T12:51:00.610Z,3.40
2018-07-20T12:52:03.653Z,3.60
2018-07-20T12:53:06.639Z,3.53
2018-07-20T12:54:09.638Z,3.67
2018-07-20T12:55:12.653Z,3.80
2018-07-20T12:56:15.678Z,3.47
2018-07-20T12:57:18.672Z,3.77
2018-07-20T12:58:22.519Z,3.30
2018-07-20T12:59:25.644Z,3.60
2018-07-20T13:00:28.674Z,3.80
2018-07-20T13:01:31.693Z,3.50
2018-07-20T13:02:34.665Z,3.93
2018-07-20T13:03:37.661Z,3.70
2018-07-20T13:04:40.706Z,3.90
2018-07-20T13:05:43.697Z,3.40
2018-07-20T13:06:46.706Z,3.57
2018-07-20T13:07:49.716Z,3.90
2018-07-20T13:08:52.706Z,3.77
2018-07-20T13:09:55.735Z,4.03
2018-07-20T13:10:58.739Z,3.90
2018-07-20T13:12:01.834Z,3.83
2018-07-20T13:13:04.794Z,4.50
2018-07-20T13:14:08.186Z,4.05
2018-07-20T13:15:11.379Z,3.70
2018-07-20T13:16:14.383Z,3.80
2018-07-20T13:17:17.384Z,3.77
2018-07-20T13:18:20.888Z,3.67
2018-07-20T13:19:24.145Z,4.30
2018-07-20T13:20:27.138Z,3.90
2018-07-20T13:21:29.974Z,3.73
2018-07-20T13:22:32.971Z,3.90
2018-07-20T13:23:36.047Z,4.00
2018-07-20T13:24:39.031Z,4.00
2018-07-20T13:25:42.043Z,4.20
2018-07-20T13:26:45.038Z,3.87
2018-07-20T13:27:48.041Z,3.60
2018-07-20T13:28:51.263Z,3.73
2018-07-20T13:29:54.329Z,3.77
2018-07-20T13:30:57.356Z,3.87
2018-07-20T13:32:00.341Z,3.93
2018-07-20T13:33:03.390Z,3.73
2018-07-20T13:34:06.380Z,3.60
2018-07-20T13:35:09.417Z,3.90
2018-07-20T13:36:12.445Z,3.67
2018-07-20T13:37:15.450Z,3.50
2018-07-20T13:38:18.429Z,3.77
2018-07-20T13:39:22.073Z,3.60
2018-07-20T13:40:25.081Z,4.33
2018-07-20T13:41:28.071Z,3.70
2018-07-20T13:42:31.211Z,3.70
2018-07-20T13:43:34.405Z,3.87
2018-07-20T13:44:37.422Z,3.70
2018-07-20T13:45:40.434Z,3.83
2018-07-20T13:46:43.481Z,4.00
2018-07-20T13:47:46.501Z,4.17
2018-07-20T13:48:49.489Z,3.80
2018-07-20T13:49:52.529Z,3.80
2018-07-20T13:50:55.605Z,4.40
2018-07-20T13:51:58.601Z,3.73
2018-07-20T13:53:01.619Z,3.77
2018-07-20T13:54:04.644Z,3.90
2018-07-20T13:55:07.645Z,3.60
2018-07-20T13:56:10.668Z,3.70
2018-07-20T13:57:13.660Z,3.70
2018-07-20T13:58:16.872Z,3.80
2018-07-20T13:59:19.873Z,3.43
2018-07-20T14:00:22.877Z,3.60